Time;durP1;ratioP1;P1;durP2;ratioP2;P2;SDS_P1;SDS_P2;PMS_P1;PMS_P2;Temp;Humidity;BMP_temperature;BMP_pressure;BME280_temperature;BME280_humidity;BME280_pressure;Samples;Min_cycle;Max_cycle;Signal;HPM_P1;HPM_P2
2022/12/22 03:26:50;;;;;;;9.38;3.53;;;;;;;9.51;100.00;99638.72;4946883;28;20412;-67
2022/12/22 03:29:16;;;;;;;8.25;4.38;;;;;;;9.58;100.00;99639.53;4950167;28;20030;-67
2022/12/22 03:31:41;;;;;;;5.70;3.17;;;;;;;9.54;100.00;99624.53;4962876;28;20082;-69
2022/12/22 03:34:07;;;;;;;8.05;4.05;;;;;;;9.57;100.00;99629.94;4953255;28;20027;-67
2022/12/22 03:36:32;;;;;;;10.13;4.43;;;;;;;9.59;100.00;99626.88;4953109;28;20042;-67
2022/12/22 03:38:58;;;;;;;8.68;4.22;;;;;;;9.44;100.00;99628.69;4950897;28;20027;-67
2022/12/22 03:46:51;;;;;;;6.72;3.25;;;;;;;9.56;100.00;99625.69;4942559;29;20527;-66
2022/12/22 03:49:18;;;;;;;5.97;3.03;;;;;;;9.70;100.00;99616.97;4946615;29;20027;-66
2022/12/22 03:51:49;;;;;;;6.20;3.75;;;;;;;9.83;100.00;99621.66;4946968;29;20046;-65
2022/12/22 03:54:17;;;;;;;5.25;3.20;;;;;;;9.74;100.00;99617.75;4953118;28;20082;-65
2022/12/22 03:56:43;;;;;;;8.88;4.07;;;;;;;9.32;100.00;99615.53;4952004;29;20027;-67
2022/12/22 03:59:09;;;;;;;5.90;3.47;;;;;;;9.53;100.00;99613.03;4948404;28;20408;-64
2022/12/22 04:01:41;;;;;;;7.25;3.63;;;;;;;9.60;100.00;99605.00;4952047;28;20429;-66
2022/12/22 04:04:06;;;;;;;;;;;;;;;9.65;100.00;99604.66;4948966;28;20039;-66
2022/12/22 04:06:32;;;;;;;6.25;2.85;;;;;;;9.68;100.00;99605.81;4949514;28;19911;-66
2022/12/22 04:08:57;;;;;;;7.20;3.85;;;;;;;9.77;100.00;99598.22;4943796;28;20035;-67
2022/12/22 04:14:07;;;;;;;7.47;3.45;;;;;;;9.78;100.00;99599.72;4951998;28;20061;-66
2022/12/22 04:16:32;;;;;;;6.53;3.63;;;;;;;9.66;100.00;99589.28;4948390;28;20027;-66
2022/12/22 04:18:58;;;;;;;5.22;3.53;;;;;;;9.72;100.00;99593.94;4941831;29;20060;-67
2022/12/22 04:21:23;;;;;;;8.00;4.13;;;;;;;9.70;100.00;99598.16;4936851;29;20063;-66
2022/12/22 04:23:51;;;;;;;6.85;4.13;;;;;;;9.79;100.00;99582.47;4936404;29;20031;-67
2022/12/22 04:26:19;;;;;;;6.18;3.17;;;;;;;9.82;100.00;99581.72;4931598;29;20058;-66
2022/12/22 04:28:44;;;;;;;7.93;3.58;;;;;;;9.83;100.00;99575.19;4947564;29;20485;-66
2022/12/22 04:31:10;;;;;;;7.15;3.80;;;;;;;9.79;100.00;99563.66;4935316;29;20030;-66
2022/12/22 04:33:35;;;;;;;4.95;3.00;;;;;;;9.94;100.00;99570.63;4946357;29;20023;-66
2022/12/22 04:36:01;;;;;;;6.75;3.72;;;;;;;9.95;100.00;99569.47;4952322;29;20039;-66
2022/12/22 04:38:26;;;;;;;6.38;3.67;;;;;;;9.83;100.00;99564.44;4952205;29;20047;-66
2022/12/22 04:40:51;;;;;;;8.00;4.07;;;;;;;9.77;100.00;99563.25;4945450;28;20028;-66
2022/12/22 04:43:17;;;;;;;5.30;3.10;;;;;;;9.84;100.00;99563.28;4948394;29;20035;-66
2022/12/22 04:45:43;;;;;;;4.72;3.00;;;;;;;9.74;100.00;99559.41;4952393;28;20070;-66
2022/12/22 04:48:08;;;;;;;6.13;3.38;;;;;;;9.74;100.00;99558.63;4951870;28;20027;-67
2022/12/22 04:50:34;;;;;;;6.03;3.58;;;;;;;9.82;100.00;99562.88;4948749;28;20032;-67
2022/12/22 04:52:59;;;;;;;9.25;3.80;;;;;;;9.77;100.00;99557.88;4941370;28;20027;-67
2022/12/22 04:55:25;;;;;;;6.93;3.55;;;;;;;9.79;100.00;99555.59;4945923;28;20053;-66
2022/12/22 04:57:50;;;;;;;7.63;3.53;;;;;;;9.94;100.00;99549.91;4937424;29;20067;-66
2022/12/22 05:00:16;;;;;;;9.98;3.75;;;;;;;9.70;100.00;99536.31;4939205;28;20102;-66
2022/12/22 05:02:41;;;;;;;7.78;4.55;;;;;;;9.82;100.00;99538.69;4950801;28;20020;-66
2022/12/22 05:05:07;;;;;;;8.45;3.90;;;;;;;9.81;100.00;99537.91;4942757;28;20501;-67
2022/12/22 05:07:33;;;;;;;8.23;4.18;;;;;;;9.71;100.00;99535.19;4947894;28;20044;-66
2022/12/22 05:09:58;;;;;;;8.25;4.18;;;;;;;9.76;100.00;99522.16;4937260;28;20034;-67
2022/12/22 05:15:08;;;;;;;7.47;3.72;;;;;;;9.75;100.00;99523.31;4942433;28;20035;-66
2022/12/22 05:17:33;;;;;;;8.73;4.00;;;;;;;9.94;100.00;99520.31;4940731;28;20136;-66
2022/12/22 05:19:59;;;;;;;7.20;3.47;;;;;;;10.01;100.00;99514.19;4934848;28;20023;-67
2022/12/22 05:22:24;;;;;;;6.32;3.55;;;;;;;9.99;100.00;99517.25;4938088;28;20050;-67
2022/12/22 05:24:49;;;;;;;7.53;4.18;;;;;;;9.93;100.00;99520.69;4932272;28;20072;-67
2022/12/22 05:27:16;;;;;;;5.78;3.45;;;;;;;9.93;100.00;99512.63;4929658;29;20031;-66
2022/12/22 05:29:41;;;;;;;7.95;4.32;;;;;;;9.95;100.00;99513.78;4939251;28;20039;-66
2022/12/22 05:32:07;;;;;;;8.57;4.07;;;;;;;10.02;100.00;99508.44;4941600;28;20086;-67
2022/12/22 05:34:32;;;;;;;8.10;4.05;;;;;;;9.90;100.00;99506.09;4949143;28;20027;-67
2022/12/22 05:36:58;;;;;;;7.28;3.80;;;;;;;10.04;100.00;99513.44;4950481;28;20201;-67
2022/12/22 05:39:23;;;;;;;9.00;4.65;;;;;;;10.03;100.00;99506.50;4959178;28;20141;-66
2022/12/22 05:41:48;;;;;;;7.50;3.83;;;;;;;9.80;100.00;99506.81;4954001;28;20437;-66
2022/12/22 05:44:14;;;;;;;9.35;3.65;;;;;;;9.82;100.00;99499.13;4959568;28;20039;-66
2022/12/22 05:46:39;;;;;;;6.25;3.50;;;;;;;9.87;100.00;99504.16;4950684;28;20416;-67
2022/12/22 05:49:05;;;;;;;8.23;4.45;;;;;;;10.02;100.00;99503.06;4945113;28;20038;-66
2022/12/22 05:51:30;;;;;;;9.40;4.35;;;;;;;9.92;100.00;99498.41;4936940;28;20035;-68
2022/12/22 05:53:55;;;;;;;7.47;3.92;;;;;;;9.79;100.00;99494.50;4951943;28;20031;-66
2022/12/22 05:56:21;;;;;;;11.27;3.75;;;;;;;9.76;100.00;99497.19;4960715;28;20035;-66
2022/12/22 05:58:46;;;;;;;7.13;3.95;;;;;;;9.82;100.00;99496.44;4947310;28;20063;-67
2022/12/22 06:01:12;;;;;;;10.10;4.45;;;;;;;9.79;100.00;99496.44;4952391;28;20046;-66
2022/12/22 06:03:37;;;;;;;9.68;4.22;;;;;;;9.83;100.00;99491.84;4948757;28;20039;-67
2022/12/22 06:06:03;;;;;;;8.05;4.15;;;;;;;9.91;100.00;99491.50;4951618;28;20692;-66
2022/12/22 06:08:29;;;;;;;9.48;4.80;;;;;;;9.87;100.00;99493.38;4952046;28;20110;-67
2022/12/22 06:10:56;;;;;;;7.10;3.65;;;;;;;9.85;100.00;99495.69;4945419;28;20068;-66
2022/12/22 06:13:22;;;;;;;7.70;4.68;;;;;;;10.00;100.00;99491.16;4943577;28;20485;-68
2022/12/22 06:15:48;;;;;;;8.75;4.60;;;;;;;10.01;100.00;99487.28;4940060;28;20042;-67
2022/12/22 06:18:13;;;;;;;8.70;3.78;;;;;;;9.96;100.00;99495.75;4948342;28;20547;-66
2022/12/22 06:20:39;;;;;;;6.60;3.65;;;;;;;10.19;100.00;99495.44;4962348;28;20046;-66
2022/12/22 06:23:04;;;;;;;7.40;4.25;;;;;;;10.21;100.00;99485.09;4942434;28;20031;-67
2022/12/22 06:25:30;;;;;;;8.38;4.07;;;;;;;10.21;100.00;99480.47;4941114;29;20568;-66
2022/12/22 06:27:55;;;;;;;9.20;4.50;;;;;;;10.21;100.00;99477.00;4947096;28;20113;-67
2022/12/22 06:30:21;;;;;;;8.55;4.75;;;;;;;10.16;100.00;99488.16;4943861;28;20095;-66
2022/12/22 06:32:47;;;;;;;8.13;4.15;;;;;;;10.04;100.00;99486.56;4948762;28;20078;-67
2022/12/22 06:35:13;;;;;;;8.30;4.30;;;;;;;10.09;100.00;99474.63;4952862;28;20054;-66
2022/12/22 06:37:38;;;;;;;8.57;4.60;;;;;;;10.13;100.00;99483.50;4939818;28;20515;-67
2022/12/22 06:40:06;;;;;;;8.73;4.50;;;;;;;10.14;100.00;99483.16;4941765;28;20039;-67
2022/12/22 06:45:16;;;;;;;9.90;4.47;;;;;;;9.95;100.00;99475.34;4952534;28;20401;-67
2022/12/22 06:47:41;;;;;;;8.48;4.28;;;;;;;10.02;100.00;99486.16;4944101;28;20039;-67
2022/12/22 06:50:07;;;;;;;8.40;4.63;;;;;;;10.08;100.00;99479.25;4945579;29;20019;-67
2022/12/22 06:52:34;;;;;;;9.82;4.63;;;;;;;9.98;100.00;99472.72;4947218;29;20572;-66
2022/12/22 06:55:01;;;;;;;7.90;4.50;;;;;;;9.91;100.00;99482.66;4937704;28;20047;-66
2022/12/22 06:57:26;;;;;;;7.55;4.70;;;;;;;10.00;100.00;99475.00;4940815;28;20480;-67
2022/12/22 06:59:52;;;;;;;10.77;4.82;;;;;;;10.03;100.00;99480.41;4952811;28;20038;-67
2022/12/22 07:02:17;;;;;;;7.07;3.53;;;;;;;10.10;100.00;99482.38;4939501;28;20094;-66
2022/12/22 07:04:44;;;;;;;12.75;5.18;;;;;;;10.12;100.00;99490.84;4948752;28;20436;-66
2022/12/22 07:07:10;;;;;;;8.05;3.90;;;;;;;10.21;100.00;99498.53;4937857;28;20046;-66
2022/12/22 07:09:35;;;;;;;9.35;4.35;;;;;;;10.17;100.00;99495.84;4940505;28;20047;-67
2022/12/22 07:12:00;;;;;;;10.38;4.43;;;;;;;10.14;100.00;99493.91;4934554;28;20067;-66
2022/12/22 07:14:26;;;;;;;7.97;3.88;;;;;;;10.25;100.00;99489.31;4940682;29;20043;-66
2022/12/22 07:16:51;;;;;;;9.93;4.18;;;;;;;10.29;100.00;99487.41;4940590;28;20059;-66
2022/12/22 07:19:17;;;;;;;8.77;4.57;;;;;;;10.25;100.00;99480.47;4935609;29;20028;-66
2022/12/22 07:21:42;;;;;;;6.88;3.90;;;;;;;10.22;100.00;99473.94;4936480;28;20107;-66
2022/12/22 07:24:08;;;;;;;11.88;4.78;;;;;;;10.25;100.00;99486.63;4945830;29;20471;-66
2022/12/22 07:26:33;;;;;;;7.88;4.47;;;;;;;10.25;100.00;99489.31;4947545;29;20034;-66
2022/12/22 07:28:59;;;;;;;7.88;3.85;;;;;;;10.27;100.00;99488.94;4944322;29;20050;-66
2022/12/22 07:31:24;;;;;;;9.60;4.65;;;;;;;10.26;100.00;99488.16;4949459;28;20031;-65
2022/12/22 07:33:50;;;;;;;8.70;4.47;;;;;;;10.17;100.00;99482.38;4951731;29;20118;-65
2022/12/22 07:36:18;;;;;;;7.03;3.55;;;;;;;10.22;100.00;99481.25;4953373;28;20035;-65
2022/12/22 07:38:46;;;;;;;12.18;5.47;;;;;;;10.23;100.00;99478.19;4949917;28;20024;-66
2022/12/22 07:44:00;;;;;;;8.45;4.18;;;;;;;10.15;100.00;99471.22;4933405;29;20045;-66
2022/12/22 07:46:28;;;;;;;10.95;4.75;;;;;;;10.29;100.00;99473.97;4943188;28;20086;-66
2022/12/22 07:51:39;;;;;;;6.38;3.50;;;;;;;10.30;100.00;99472.06;4933800;29;20643;-65
2022/12/22 07:54:07;;;;;;;7.50;4.57;;;;;;;10.13;100.00;99475.44;4937871;29;20086;-66
2022/12/22 07:56:32;;;;;;;10.07;4.47;;;;;;;10.16;100.00;99475.47;4938260;29;20028;-66
2022/12/22 07:58:58;;;;;;;11.65;5.28;;;;;;;10.14;100.00;99480.47;4936179;29;20051;-66
2022/12/22 08:01:23;;;;;;;10.05;4.53;;;;;;;10.01;100.00;99481.91;4935910;28;20036;-66
2022/12/22 08:03:49;;;;;;;8.90;4.93;;;;;;;9.83;100.00;99491.84;4928375;29;20023;-66
2022/12/22 08:06:14;;;;;;;8.80;3.80;;;;;;;9.97;100.00;99481.13;4929977;29;20642;-67
2022/12/22 08:08:40;;;;;;;8.30;4.25;;;;;;;10.04;100.00;99481.16;4933588;29;20040;-67
2022/12/22 08:11:05;;;;;;;8.77;4.18;;;;;;;10.06;100.00;99486.16;4930878;28;20020;-66
2022/12/22 08:13:31;;;;;;;7.78;3.80;;;;;;;10.14;100.00;99477.78;4934552;28;20044;-66
2022/12/22 08:16:04;;;;;;;7.65;3.90;;;;;;;10.18;100.00;99481.22;4940180;29;20039;-66
2022/12/22 08:18:30;;;;;;;11.18;5.68;;;;;;;10.24;100.00;99484.34;4951390;28;20036;-66
2022/12/22 08:20:56;;;;;;;13.15;5.40;;;;;;;10.08;100.00;99487.34;4932134;28;20035;-67
2022/12/22 08:23:21;;;;;;;8.55;4.13;;;;;;;10.11;100.00;99483.13;4932392;28;20050;-67
2022/12/22 08:25:54;;;;;;;7.80;3.83;;;;;;;10.20;100.00;99481.63;4934002;29;20119;-67
2022/12/22 08:28:20;;;;;;;9.70;4.80;;;;;;;10.30;100.00;99480.88;4922849;29;21257;-67
2022/12/22 08:30:46;;;;;;;8.40;4.32;;;;;;;10.30;100.00;99480.88;4934397;28;20054;-67
2022/12/22 08:33:11;;;;;;;8.13;4.80;;;;;;;10.31;100.00;99482.44;4937454;29;20042;-66
2022/12/22 08:35:37;;;;;;;10.38;5.00;;;;;;;10.26;100.00;99482.78;4932989;29;20035;-67
2022/12/22 08:38:04;;;;;;;10.23;5.00;;;;;;;10.29;100.00;99479.34;4943189;28;20051;-69
2022/12/22 08:40:31;;;;;;;8.95;4.60;;;;;;;10.27;100.00;99478.19;4938501;28;20050;-67
2022/12/22 08:43:02;;;;;;;9.77;3.83;;;;;;;10.31;100.00;99477.03;4946651;28;20066;-66
2022/12/22 08:45:28;;;;;;;8.60;4.68;;;;;;;10.35;100.00;99480.50;4945746;28;20071;-67
2022/12/22 08:47:53;;;;;;;9.00;4.38;;;;;;;10.28;100.00;99480.47;4943508;28;20449;-67
2022/12/22 08:50:19;;;;;;;8.88;4.10;;;;;;;10.33;100.00;99482.03;4942112;28;20027;-66
2022/12/22 08:52:44;;;;;;;9.63;4.40;;;;;;;10.28;100.00;99474.34;4943957;28;20031;-67
2022/12/22 08:55:09;;;;;;;11.23;4.75;;;;;;;10.31;100.00;99479.75;4948011;28;20035;-67
2022/12/22 08:57:35;;;;;;;10.13;4.32;;;;;;;9.99;100.00;99473.44;4950286;28;20035;-66
2022/12/22 09:00:00;;;;;;;9.02;4.30;;;;;;;9.99;100.00;99485.00;4954825;28;20038;-66
2022/12/22 09:02:26;;;;;;;8.48;3.65;;;;;;;10.12;100.00;99482.78;4953337;28;20086;-67
2022/12/22 09:04:51;;;;;;;7.90;4.70;;;;;;;10.25;100.00;99491.25;4953396;28;20049;-66
2022/12/22 09:07:17;;;;;;;7.43;3.92;;;;;;;10.31;100.00;99487.81;4958677;28;20039;-67
2022/12/22 09:09:44;;;;;;;8.68;4.18;;;;;;;10.37;100.00;99486.28;4957765;28;20023;-67
2022/12/22 09:12:10;;;;;;;10.07;4.82;;;;;;;10.44;100.00;99483.59;4935187;28;20043;-67
2022/12/22 09:14:35;;;;;;;6.38;3.60;;;;;;;10.39;100.00;99483.97;4938184;29;20036;-66
2022/12/22 09:17:01;;;;;;;7.75;4.28;;;;;;;10.41;100.00;99476.31;4942232;28;20030;-67
2022/12/22 09:19:26;;;;;;;8.57;3.83;;;;;;;10.25;100.00;99480.47;4953489;29;20050;-69
2022/12/22 09:21:52;;;;;;;10.13;3.88;;;;;;;10.43;100.00;99484.00;4943295;28;20043;-66
2022/12/22 09:24:24;;;;;;;8.23;3.58;;;;;;;10.39;100.00;99485.91;4945522;28;20035;-67
2022/12/22 09:26:57;;;;;;;8.45;4.13;;;;;;;10.31;100.00;99477.03;4952015;28;20095;-69
2022/12/22 09:29:26;;;;;;;8.05;4.28;;;;;;;10.37;100.00;99477.44;4927812;29;20122;-66
2022/12/22 09:31:51;;;;;;;7.38;3.65;;;;;;;10.35;100.00;99485.13;4951977;29;20152;-66
2022/12/22 09:34:17;;;;;;;8.10;3.80;;;;;;;10.42;100.00;99475.13;4953778;28;20071;-66
2022/12/22 09:36:43;;;;;;;8.50;3.67;;;;;;;10.44;100.00;99477.44;4953209;28;20054;-66
2022/12/22 09:39:09;;;;;;;10.00;4.28;;;;;;;10.48;100.00;99479.00;4949002;29;20042;-66
2022/12/22 09:41:51;;;;;;;6.18;3.65;;;;;;;10.46;100.00;99480.50;4948337;28;20035;-67
2022/12/22 09:44:19;;;;;;;;;;;;;;;10.51;100.00;99480.16;4939161;28;20035;-66
2022/12/22 09:46:45;;;;;;;5.57;2.65;;;;;;;10.53;100.00;99464.41;4940620;28;20043;-66
2022/12/22 09:49:15;;;;;;;6.75;3.35;;;;;;;10.52;100.00;99466.31;4937493;29;20031;-67
2022/12/22 09:51:45;;;;;;;7.30;4.30;;;;;;;10.55;100.00;99481.69;4931715;29;20408;-67
2022/12/22 09:54:12;;;;;;;6.88;3.40;;;;;;;10.59;100.00;99473.59;4939118;29;20404;-66
2022/12/22 09:56:38;;;;;;;7.07;3.95;;;;;;;10.61;100.00;99482.06;4934994;28;20050;-66
2022/12/22 09:59:09;;;;;;;11.48;4.82;;;;;;;10.64;100.00;99479.41;4948025;29;20028;-66
2022/12/22 10:02:01;;;;;;;8.65;4.28;;;;;;;10.70;100.00;99485.91;4952059;29;20031;-66
2022/12/22 10:04:57;;;;;;;8.98;4.28;;;;;;;10.65;100.00;99477.47;4947234;28;20065;-66
2022/12/22 10:07:42;;;;;;;7.88;4.20;;;;;;;10.67;100.00;99492.09;4951040;29;20103;-67
2022/12/22 10:10:23;;;;;;;14.25;4.85;;;;;;;10.58;100.00;99490.91;4949743;28;20040;-66
2022/12/22 10:12:56;;;;;;;9.85;4.90;;;;;;;10.62;100.00;99491.69;4967655;28;20039;-67
2022/12/22 10:15:22;;;;;;;9.63;4.25;;;;;;;10.61;100.00;99496.31;4951559;28;20046;-66
2022/12/22 10:18:07;;;;;;;7.63;3.92;;;;;;;10.63;100.00;99487.84;4948683;28;20042;-66
2022/12/22 10:20:33;;;;;;;12.00;4.25;;;;;;;10.56;100.00;99493.22;4950826;28;20377;-66
2022/12/22 10:23:23;;;;;;;8.05;4.00;;;;;;;10.64;100.00;99489.41;4950940;29;20081;-67
2022/12/22 10:25:55;;;;;;;8.40;4.10;;;;;;;10.67;100.00;99488.63;4943936;28;20067;-66
2022/12/22 10:28:28;;;;;;;8.70;4.60;;;;;;;10.68;100.00;99490.16;4926923;28;20043;-66
2022/12/22 10:31:16;;;;;;;10.40;4.35;;;;;;;10.72;100.00;99488.25;4943930;28;20097;-66
2022/12/22 10:33:43;;;;;;;10.93;5.38;;;;;;;10.63;100.00;99490.53;4930553;28;20043;-66
2022/12/22 10:36:29;;;;;;;10.10;5.25;;;;;;;10.68;100.00;99488.22;4942184;28;20054;-66
2022/12/22 10:38:57;;;;;;;13.48;5.50;;;;;;;10.72;100.00;99499.75;4909156;29;20048;-66
2022/12/22 10:41:26;;;;;;;15.85;5.20;;;;;;;10.75;100.00;99493.63;4908598;29;20048;-66
2022/12/22 10:44:00;;;;;;;13.10;5.05;;;;;;;10.64;100.00;99498.25;4902652;29;20498;-66
2022/12/22 10:46:39;;;;;;;16.10;6.50;;;;;;;10.54;100.00;99499.00;4908099;29;20066;-66
2022/12/22 10:49:18;;;;;;;16.45;5.18;;;;;;;10.46;100.00;99494.75;4911905;29;20741;-66
2022/12/22 10:51:47;;;;;;;12.63;5.75;;;;;;;10.61;100.00;99501.69;4894937;29;20031;-66
2022/12/22 10:54:32;;;;;;;12.90;6.05;;;;;;;10.67;100.00;99500.16;4907654;29;20478;-67
2022/12/22 10:57:18;;;;;;;11.73;5.10;;;;;;;10.68;100.00;99504.38;4908086;29;20519;-66
2022/12/22 10:59:46;;;;;;;11.07;5.72;;;;;;;10.69;100.00;99495.16;4891946;29;20053;-67
2022/12/22 11:02:25;;;;;;;15.10;5.75;;;;;;;10.65;100.00;99499.00;4900956;29;20048;-67
2022/12/22 11:04:51;;;;;;;11.55;4.78;;;;;;;10.65;100.00;99509.75;4871456;29;20036;-67
2022/12/22 11:07:18;;;;;;;15.80;5.63;;;;;;;10.72;100.00;99512.47;4877013;29;20084;-67
2022/12/22 11:09:43;;;;;;;11.35;4.90;;;;;;;10.80;100.00;99497.88;4909602;29;20040;-67
2022/12/22 11:12:41;;;;;;;14.50;5.18;;;;;;;10.78;100.00;99503.63;4893783;29;20036;-67
2022/12/22 11:15:33;;;;;;;9.63;4.93;;;;;;;10.79;100.00;99499.00;4905566;28;20054;-67
2022/12/22 11:18:40;;;;;;;12.90;4.68;;;;;;;10.80;100.00;99498.63;4947966;28;20038;-67
2022/12/22 11:21:06;;;;;;;13.57;5.00;;;;;;;10.86;100.00;99499.00;4940683;28;20458;-67
2022/12/22 11:23:50;;;;;;;11.50;4.53;;;;;;;10.92;100.00;99496.72;4949822;28;20031;-67
2022/12/22 11:26:21;;;;;;;13.23;6.00;;;;;;;10.98;100.00;99503.25;4933561;29;20078;-67
2022/12/22 11:29:07;;;;;;;;;;;;;;;10.93;100.00;99503.63;4951719;28;20031;-67
2022/12/22 11:31:47;;;;;;;11.85;5.82;;;;;;;10.93;100.00;99503.63;4934155;28;19961;-67
2022/12/22 11:34:45;;;;;;;11.10;5.15;;;;;;;10.86;100.00;99499.78;4952264;28;20039;-67
2022/12/22 11:37:26;;;;;;;11.73;4.45;;;;;;;10.86;100.00;99501.69;4936719;29;20044;-67
2022/12/22 11:40:16;;;;;;;12.02;4.97;;;;;;;10.79;100.00;99501.72;4940645;28;20482;-67
2022/12/22 11:42:50;;;;;;;10.25;4.57;;;;;;;10.84;100.00;99512.88;4941510;28;20031;-67
2022/12/22 11:45:41;;;;;;;11.73;5.38;;;;;;;10.97;100.00;99507.09;4939392;28;20043;-67
2022/12/22 11:48:19;;;;;;;12.93;5.18;;;;;;;11.09;100.00;99498.63;4935587;28;20024;-66
2022/12/22 11:50:47;;;;;;;14.32;5.57;;;;;;;11.01;100.00;99505.97;4942892;28;20043;-67
2022/12/22 11:53:32;;;;;;;13.15;5.10;;;;;;;10.96;100.00;99498.25;4950517;29;20086;-67
2022/12/22 11:56:22;;;;;;;8.98;4.05;;;;;;;11.04;100.00;99515.16;4949579;28;20037;-67
2022/12/22 11:59:01;;;;;;;12.15;5.00;;;;;;;11.00;100.00;99509.00;4943232;28;20127;-67
2022/12/22 12:01:38;;;;;;;10.43;4.60;;;;;;;11.01;100.00;99511.34;4952110;28;20054;-67
2022/12/22 12:04:25;;;;;;;10.45;4.47;;;;;;;11.00;100.00;99528.66;4943416;28;20126;-67
2022/12/22 12:07:08;;;;;;;9.98;5.15;;;;;;;10.95;100.00;99520.97;4938979;28;20404;-67
2022/12/22 12:09:56;;;;;;;10.73;4.22;;;;;;;11.04;100.00;99525.94;4951361;28;20106;-68
2022/12/22 12:12:47;;;;;;;11.30;3.97;;;;;;;11.09;100.00;99525.56;4932983;28;20045;-68
2022/12/22 12:15:20;;;;;;;8.93;3.90;;;;;;;11.12;100.00;99514.00;4922990;28;20044;-67
2022/12/22 12:18:07;;;;;;;8.73;4.13;;;;;;;11.14;100.00;99522.47;4935665;28;20062;-67
2022/12/22 12:20:37;;;;;;;10.90;4.55;;;;;;;11.00;100.00;99517.88;4942449;28;20784;-67
2022/12/22 12:23:40;;;;;;;11.90;3.57;;;;;;;11.09;100.00;99525.56;4919740;29;20083;-67
2022/12/22 12:26:21;;;;;;;10.57;4.43;;;;;;;11.19;100.00;99538.28;4931987;28;20350;-68
2022/12/22 12:29:25;;;;;;;9.13;3.97;;;;;;;11.16;100.00;99539.81;4932704;28;20034;-67
2022/12/22 12:32:16;;;;;;;13.13;5.82;;;;;;;11.12;100.00;99547.13;4928268;28;20090;-67
2022/12/22 12:34:45;;;;;;;12.43;4.88;;;;;;;11.14;100.00;99541.34;4941850;28;20035;-67
2022/12/22 12:37:28;;;;;;;10.48;4.72;;;;;;;11.08;100.00;99542.88;4929841;29;20036;-67
2022/12/22 12:40:15;;;;;;;14.20;5.07;;;;;;;11.06;100.00;99545.19;4940371;28;20042;-68
2022/12/22 12:42:44;;;;;;;12.15;5.70;;;;;;;11.04;100.00;99545.59;4933721;29;20404;-67
2022/12/22 12:45:39;;;;;;;10.75;4.65;;;;;;;10.99;100.00;99547.88;4938783;28;20038;-67
2022/12/22 12:48:20;;;;;;;10.73;4.68;;;;;;;10.91;100.00;99557.91;4937381;28;20462;-67
2022/12/22 12:50:47;;;;;;;12.00;5.07;;;;;;;10.84;100.00;99545.19;4940577;28;20092;-68
2022/12/22 12:53:13;;;;;;;10.25;5.18;;;;;;;10.90;100.00;99549.03;4947665;28;20081;-67
2022/12/22 12:55:48;;;;;;;12.15;4.75;;;;;;;10.93;100.00;99562.88;4938977;28;20035;-67
2022/12/22 12:58:33;;;;;;;8.88;3.70;;;;;;;10.85;100.00;99554.81;4965455;28;20043;-67
2022/12/22 13:00:59;;;;;;;11.45;4.13;;;;;;;10.80;100.00;99555.19;4947819;28;20046;-68
2022/12/22 13:03:27;;;;;;;8.55;4.05;;;;;;;10.79;100.00;99558.25;4943622;28;20408;-67
2022/12/22 13:05:54;;;;;;;10.48;4.35;;;;;;;10.78;100.00;99557.47;4946793;28;20042;-67
2022/12/22 13:08:22;;;;;;;9.93;4.63;;;;;;;10.71;100.00;99564.78;4949357;28;20723;-68
2022/12/22 13:11:13;;;;;;;11.80;4.65;;;;;;;10.77;100.00;99566.72;4927437;29;20118;-67
2022/12/22 13:13:39;;;;;;;10.05;4.25;;;;;;;10.73;100.00;99571.34;4947189;28;20113;-68
2022/12/22 13:16:04;;;;;;;10.25;4.78;;;;;;;10.63;100.00;99574.00;4947285;28;20087;-68
2022/12/22 13:18:33;;;;;;;10.05;4.22;;;;;;;10.68;100.00;99574.38;4948920;28;20043;-68
2022/12/22 13:21:29;;;;;;;8.70;4.18;;;;;;;10.80;100.00;99578.66;4927743;28;20447;-68
2022/12/22 13:23:55;;;;;;;9.98;4.35;;;;;;;10.76;100.00;99586.72;4928919;28;20043;-68
2022/12/22 13:26:27;;;;;;;9.05;4.10;;;;;;;10.84;100.00;99587.50;4927757;29;20042;-68
2022/12/22 13:28:56;;;;;;;8.40;4.28;;;;;;;10.83;100.00;99592.13;4944276;28;20035;-68
2022/12/22 13:31:28;;;;;;;9.80;4.35;;;;;;;10.85;100.00;99597.13;4946335;28;20877;-69
2022/12/22 13:34:20;;;;;;;13.77;4.53;;;;;;;10.79;99.91;99596.75;4943354;28;20133;-68
2022/12/22 13:36:48;;;;;;;10.05;4.53;;;;;;;10.66;100.00;99600.16;4945111;28;20039;-68
2022/12/22 13:39:14;;;;;;;11.13;4.90;;;;;;;10.71;100.00;99597.09;4940640;28;20024;-68
2022/12/22 13:41:44;;;;;;;8.82;4.30;;;;;;;10.73;99.54;99592.88;4933548;28;20057;-68
2022/12/22 13:44:15;;;;;;;7.15;3.55;;;;;;;10.77;99.87;99604.44;4939663;28;20581;-68
2022/12/22 13:46:41;;;;;;;8.85;3.75;;;;;;;10.79;99.46;99596.75;4944858;28;20476;-68
2022/12/22 13:49:12;;;;;;;8.65;4.00;;;;;;;10.91;99.61;99598.28;4937435;28;20050;-68
2022/12/22 13:51:38;;;;;;;11.60;4.38;;;;;;;10.96;99.64;99595.22;4937718;28;20127;-68
2022/12/22 13:54:25;;;;;;;12.18;4.38;;;;;;;10.95;98.60;99590.22;4955962;28;20050;-66
2022/12/22 13:56:55;;;;;;;11.05;4.32;;;;;;;10.82;99.24;99595.97;4939345;28;20074;-67
2022/12/22 13:59:33;;;;;;;8.40;3.97;;;;;;;10.65;99.76;99599.38;4942479;28;20070;-66
2022/12/22 14:02:14;;;;;;;8.73;3.35;;;;;;;10.73;99.79;99592.88;4933477;28;20031;-67
2022/12/22 14:04:42;;;;;;;7.30;3.75;;;;;;;10.79;99.47;99590.56;4947646;28;20043;-66
2022/12/22 14:07:15;;;;;;;6.72;3.45;;;;;;;10.86;99.02;99596.75;4956742;28;20520;-66
2022/12/22 14:10:08;;;;;;;9.10;4.15;;;;;;;10.91;98.82;99598.28;4951281;28;20046;-71
2022/12/22 14:12:40;;;;;;;8.52;4.43;;;;;;;10.88;99.04;99609.81;4888556;29;20557;-67
2022/12/22 14:15:15;;;;;;;12.25;4.75;;;;;;;10.87;98.88;99619.84;4886290;29;20083;-67
2022/12/22 14:17:41;;;;;;;8.80;3.85;;;;;;;10.90;99.16;99618.28;4879208;29;20050;-68
2022/12/22 14:20:39;;;;;;;6.57;3.20;;;;;;;10.91;98.80;99622.53;4884705;29;20036;-67
2022/12/22 14:23:14;;;;;;;7.47;3.25;;;;;;;10.87;97.85;99619.84;4882629;29;20044;-68
2022/12/22 14:25:42;;;;;;;11.57;3.25;;;;;;;10.90;98.40;99612.91;4869379;29;20045;-67
2022/12/22 14:28:18;;;;;;;9.63;3.70;;;;;;;10.71;96.81;99614.03;4886927;29;20043;-67
2022/12/22 14:30:47;;;;;;;6.63;2.85;;;;;;;10.66;97.16;99611.72;4887348;29;20051;-67
2022/12/22 14:33:14;;;;;;;8.10;4.13;;;;;;;10.61;96.81;99622.06;4883787;29;20032;-66
2022/12/22 14:35:40;;;;;;;7.38;3.13;;;;;;;10.57;97.25;99632.81;4890885;29;20041;-66
2022/12/22 14:38:05;;;;;;;5.10;2.60;;;;;;;10.61;96.91;99633.59;4887872;29;20051;-70
2022/12/22 14:40:33;;;;;;;6.10;3.22;;;;;;;10.60;97.01;99639.38;4886758;29;20052;-67
2022/12/22 14:43:02;;;;;;;7.68;3.65;;;;;;;10.51;96.62;99645.09;4887693;29;20048;-67
2022/12/22 14:45:27;;;;;;;6.53;2.95;;;;;;;10.40;97.04;99638.13;4870646;29;20047;-68
2022/12/22 14:47:54;;;;;;;7.03;3.15;;;;;;;10.49;97.56;99633.94;4882203;29;20044;-66
2022/12/22 14:50:47;;;;;;;6.95;3.83;;;;;;;10.48;96.76;99639.72;4946547;28;20528;-70
2022/12/22 14:53:15;;;;;;;8.65;3.63;;;;;;;10.43;96.79;99640.84;4881614;29;20104;-70
2022/12/22 14:55:47;;;;;;;10.80;4.38;;;;;;;10.35;96.88;99650.03;4873589;29;20053;-68
2022/12/22 14:58:20;;;;;;;12.48;4.70;;;;;;;10.36;96.50;99638.13;4872347;29;20059;-67
2022/12/22 15:01:11;;;;;;;10.93;3.47;;;;;;;10.33;96.83;99636.19;4871214;29;20131;-67
2022/12/22 15:03:37;;;;;;;9.98;3.17;;;;;;;10.34;96.67;99648.50;4884594;29;20047;-67
2022/12/22 15:06:20;;;;;;;5.70;3.05;;;;;;;10.27;96.52;99648.47;4893298;29;20092;-67
2022/12/22 15:08:46;;;;;;;6.88;3.28;;;;;;;10.18;97.07;99634.56;4869369;29;20046;-67
2022/12/22 15:11:17;;;;;;;13.43;3.85;;;;;;;10.16;96.92;99642.25;4859384;29;20453;-68
2022/12/22 15:13:43;;;;;;;6.18;3.05;;;;;;;10.10;96.85;99645.69;4874834;29;20040;-67
2022/12/22 15:16:13;;;;;;;7.55;4.15;;;;;;;10.07;97.06;99644.47;4875888;29;20069;-67
2022/12/22 15:18:39;;;;;;;5.63;3.17;;;;;;;10.06;97.38;99644.84;4875157;29;20107;-66
2022/12/22 15:21:05;;;;;;;11.07;4.15;;;;;;;10.06;97.54;99651.00;4882304;29;20032;-66
2022/12/22 15:23:30;;;;;;;12.18;5.22;;;;;;;9.99;97.45;99657.13;4870881;29;20128;-68
2022/12/22 15:25:56;;;;;;;7.10;3.72;;;;;;;10.07;97.66;99668.69;4890928;29;20040;-68
2022/12/22 15:28:22;;;;;;;6.00;3.38;;;;;;;10.09;97.67;99676.38;4892163;29;20071;-67